This is the latest recevied weather packets stored in our database for station/object IT9DBI-3. If no packets are shown the sender has not sent any weather packets the latest 10 day(s).
| Time | Temp. | Humidity | Pressure | Rain* | Wind** | Luminosity | Snow |
|---|---|---|---|---|---|---|---|
| 1788583016 | 27.78° C | 51% | 1017.7 hPa | - | - | - | - |
| 1788581824 | 29.44° C | 47% | 1017.4 hPa | - | - | - | - |
| 1788580614 | 28.33° C | 51% | 1017.4 hPa | - | - | - | - |
| 1788579413 | 27.22° C | 51% | 1017.4 hPa | - | - | - | - |
| 1788578211 | 27.22° C | 48% | 1017.2 hPa | - | - | - | - |
| 1788577010 | 28.33° C | 44% | 1017.2 hPa | - | - | - | - |
| 1788575809 | 28.89° C | 40% | 1017.1 hPa | - | - | - | - |
| 1788574607 | 27.78° C | 42% | 1017.2 hPa | - | - | - | - |
| 1788573406 | 28.33° C | 39% | 1017.2 hPa | - | - | - | - |
| 1788572205 | 27.22° C | 45% | 1017.3 hPa | - | - | - | - |
| 1788571004 | 27.22° C | 45% | 1017.2 hPa | - | - | - | - |
| 1788569802 | 27.22° C | 46% | 1017.1 hPa | - | - | - | - |
| 1788568601 | 27.22° C | 46% | 1017.1 hPa | - | - | - | - |
| 1788567400 | 27.22° C | 48% | 1017.1 hPa | - | - | - | - |
| 1788566199 | 27.78° C | 49% | 1017.2 hPa | - | - | - | - |
| 1788564997 | 28.33° C | 51% | 1017.2 hPa | - | - | - | - |
| 1788563796 | 27.78° C | 54% | 1017.5 hPa | - | - | - | - |
| 1788562597 | 28.33° C | 53% | 1017.6 hPa | - | - | - | - |
| 1788561393 | 28.89° C | 52% | 1017.7 hPa | - | - | - | - |
| 1788560192 | 30° C | 52% | 1017.6 hPa | - | - | - | - |
| 1788558991 | 28.89° C | 56% | 1017.6 hPa | - | - | - | - |
| 1788557789 | 180° C | 58% | - | - | - | - | - |
| 1788556588 | 180° C | 100% | - | - | - | - | - |
| 1788555387 | 187.78° C | 100% | 1012.3 hPa | - | - | - | - |
| 1788554186 | 30° C | 59% | 1017.8 hPa | - | - | - | - |
* Rain since midnight (hover to see other rain measurements)
** Current wind speed in m/s (hover to see current wind gust speed)